Lake Edwards, Minnesota
Current Conditions -  °F | °C
As of 3:53 PM on Tuesday 25 Nov 2014 (Local Time) from KBRD Reporting Station
Overcast Overcast  
Wind Chill: 10°   Ceiling: 2100
Heat Index: 18°   Visibility: 10mi
Dew Point:   Wind: 6mph
Humidity: 62%   Direction: 160°SSE
Pressure: 29.97"   Gusts: NA
Location:  46.5121°N, 94.2802°W
Report Text: KBRD 252153Z AUTO 16005KT 10SM OVC021 M08/M14 A2997 RMK AO2 SLP176 T10781139
Loading
Personal Weather Stations






























Interactive Weather Map New forecast layout! Learn more

10-Day Weather Forecast

Advertisements
Track Severe Weather on mobile